Forside
METAR-TAF:

METAR-TAF

Lufthavne :

Upshur County Regional Airport

Buckhannon, West Virginia, USA

Breddekreds: 39-00N, længdekreds: 080-16W, højde: 498 m

Aktuelle vejr

Denne rapport blev lavet for 27 minutter siden, kl. 17:55 UTC
Vind 11 kt fra sydvest
Temperatur 11°C
Fugtighed 28%
Tryk 1021 hPa
Sigt: 16.1 km
Brudte skyer i en højde af 11000 ft

METAR: KW22 231755Z AUTO 23011KT 10SM BKN110 11/M07 A3014 RMK AO2

Tid: 13:22 (18:22 UTC)


TAF: fraværende

Vejrobservationer og prognoser fra mere end 4000 lufthavne (METAR og TAF).

De gule og røde prikker repræsenterer de meteorologiske stationer.

Flyt musen over at se navnet på stationen.

Så klik over at se vejr observationer og prognoser.

At skifte det kort: Klik på de grønne knapper med et sort kors for at zoome ind; på den grønne knap med en bindestreg for at zoome ud; eller på de grønne pile for tilstødende kort.


METAR-TAF: